Alta, West Virginia
Current Conditions -  °F | °C
As of 3:55 PM on Friday 31 Oct 2014 (Local Time) from KLWB Reporting Station
Drizzle Drizzle  
Wind Chill: 45°   Ceiling: 4400
Heat Index: 45°   Visibility: 10mi
Dew Point: 37°   Wind: 0mph
Humidity: 75%   Direction: NA
Pressure: 29.82"   Gusts: NA
Location:  37.8345°N, 80.5736°W
Report Text: KLWB 311955Z AUTO 00000KT 10SM -DZ OVC044 07/03 A2982 RMK AO2 T00700029
Loading
Personal Weather Stations






























Interactive Weather Map
Tropical Storm Tracking
New forecast layout! Learn more

10-Day Weather Forecast

Advertisements
Track Severe Weather on mobile